Time;durP1;ratioP1;P1;durP2;ratioP2;P2;SDS_P1;SDS_P2;PMS_P1;PMS_P2;Temp;Humidity;BMP_temperature;BMP_pressure;BME280_temperature;BME280_humidity;BME280_pressure;Samples;Min_cycle;Max_cycle;Signal;HPM_P1;HPM_P2
2023/03/24 00:00:12;;;;;;;;;29.00;25.00;23.80;40.00;;;;;;111864;1259;49233;-69
2023/03/24 00:03:01;;;;;;;;;28.00;26.00;23.80;40.10;;;;;;111798;1260;47149;-70
2023/03/24 00:05:29;;;;;;;;;27.00;26.00;23.80;40.10;;;;;;111886;1259;56283;-70
2023/03/24 00:07:58;;;;;;;;;29.00;26.00;23.80;40.10;;;;;;111898;1259;54395;-70
2023/03/24 00:10:29;;;;;;;;;27.00;26.00;23.80;40.10;;;;;;111913;1259;49629;-70
2023/03/24 00:12:57;;;;;;;;;32.00;30.00;23.70;40.10;;;;;;111856;1259;49819;-70
2023/03/24 00:15:23;;;;;;;;;27.00;24.00;23.70;40.10;;;;;;111895;1259;47514;-70
2023/03/24 00:17:50;;;;;;;;;28.00;24.00;23.70;40.10;;;;;;111953;1259;56205;-70
2023/03/24 00:20:19;;;;;;;;;32.00;29.00;23.70;40.20;;;;;;111923;1259;54507;-69
2023/03/24 00:22:49;;;;;;;;;28.00;25.00;23.70;40.20;;;;;;111829;1260;50057;-70
2023/03/24 00:25:17;;;;;;;;;27.00;23.00;23.70;40.30;;;;;;111891;1255;49608;-69
2023/03/24 00:27:43;;;;;;;;;28.50;26.50;23.70;40.20;;;;;;111895;1260;46232;-70
2023/03/24 00:30:11;;;;;;;;;27.00;27.00;23.70;40.20;;;;;;111886;1259;56227;-70
2023/03/24 00:32:38;;;;;;;;;29.00;28.00;23.70;40.20;;;;;;111842;1260;53890;-70
2023/03/24 00:35:07;;;;;;;;;31.00;27.00;23.60;40.20;;;;;;111914;1259;50379;-70
2023/03/24 00:37:36;;;;;;;;;28.00;26.00;23.60;40.20;;;;;;111888;1256;49854;-70
2023/03/24 00:40:15;;;;;;;;;30.00;29.00;23.60;40.20;;;;;;111914;1255;46106;-70
2023/03/24 00:42:44;;;;;;;;;33.67;28.67;23.60;40.20;;;;;;111882;1259;56438;-70
2023/03/24 00:45:14;;;;;;;;;26.50;25.00;23.60;40.20;;;;;;111865;1259;53381;-70
2023/03/24 00:47:40;;;;;;;;;;;23.60;40.20;;;;;;111941;1259;48991;-70
2023/03/24 00:50:17;;;;;;;;;;;23.60;40.20;;;;;;111883;1260;48019;-71
2023/03/24 00:52:46;;;;;;;;;27.00;24.50;23.60;40.20;;;;;;111870;1259;45970;-70
2023/03/24 00:55:14;;;;;;;;;28.67;27.33;23.60;40.20;;;;;;111873;1259;56735;-70
2023/03/24 00:57:48;;;;;;;;;28.00;27.00;23.60;40.30;;;;;;111934;1258;54726;-70
2023/03/24 01:00:22;;;;;;;;;29.00;28.00;23.60;40.20;;;;;;111949;1259;49470;-70
2023/03/24 01:02:53;;;;;;;;;23.00;22.00;23.60;40.20;;;;;;111857;1258;50416;-70
2023/03/24 01:05:21;;;;;;;;;33.00;29.00;23.60;40.20;;;;;;111879;1259;46096;-69
2023/03/24 01:07:51;;;;;;;;;27.50;24.00;23.60;40.30;;;;;;111886;1259;56772;-70
2023/03/24 01:10:20;;;;;;;;;32.50;27.00;23.50;40.20;;;;;;111923;1259;54401;-70
2023/03/24 01:12:47;;;;;;;;;28.00;25.00;23.50;40.70;;;;;;111846;1259;49377;-69
2023/03/24 01:15:17;;;;;;;;;26.00;24.00;23.50;40.20;;;;;;111903;1260;49375;-70
2023/03/24 01:17:45;;;;;;;;;29.00;25.00;23.50;40.20;;;;;;111919;1259;46617;-69
2023/03/24 01:20:12;;;;;;;;;26.00;25.00;23.50;40.20;;;;;;111920;1259;57201;-70
2023/03/24 01:22:40;;;;;;;;;27.00;24.00;23.50;40.20;;;;;;111835;1257;54582;-70
2023/03/24 01:25:08;;;;;;;;;28.00;24.00;23.50;40.20;;;;;;111882;1259;49270;-70
2023/03/24 01:27:36;;;;;;;;;30.50;27.50;23.50;40.30;;;;;;111892;1258;49809;-70
2023/03/24 01:30:05;;;;;;;;;25.00;24.00;23.50;40.20;;;;;;111924;1259;46600;-70
2023/03/24 01:32:31;;;;;;;;;25.50;23.00;23.50;40.30;;;;;;111738;1259;56857;-69
2023/03/24 01:34:57;;;;;;;;;25.00;24.00;23.50;40.30;;;;;;111900;1255;54162;-69
2023/03/24 01:37:24;;;;;;;;;32.67;28.33;23.50;40.30;;;;;;111909;1255;50618;-70
2023/03/24 01:39:50;;;;;;;;;29.00;25.50;23.40;40.30;;;;;;111912;1259;50301;-70
2023/03/24 01:42:19;;;;;;;;;29.50;27.00;23.40;40.30;;;;;;111859;1260;46426;-69
2023/03/24 01:44:48;;;;;;;;;26.67;24.33;23.40;40.30;;;;;;111914;1259;56832;-69
2023/03/24 01:47:14;;;;;;;;;29.00;25.00;23.40;40.30;;;;;;111922;1259;54101;-69
2023/03/24 01:49:47;;;;;;;;;27.00;23.00;23.40;40.40;;;;;;111897;1259;50664;-70
2023/03/24 01:52:19;;;;;;;;;23.00;21.50;23.40;40.30;;;;;;111846;1260;49948;-70
2023/03/24 01:55:08;;;;;;;;;23.00;20.00;23.30;40.30;;;;;;111905;1259;46889;-70
2023/03/24 01:57:37;;;;;;;;;27.50;24.00;23.40;40.40;;;;;;111919;1260;57726;-70
2023/03/24 02:00:11;;;;;;;;;25.00;24.00;23.30;40.20;;;;;;111808;1260;53789;-71
2023/03/24 02:02:41;;;;;;;;;29.00;25.00;23.30;40.20;;;;;;111831;1259;49633;-70
2023/03/24 02:05:09;;;;;;;;;27.00;25.00;23.30;40.30;;;;;;111825;1257;49250;-70
2023/03/24 02:07:52;;;;;;;;;26.00;24.00;23.30;40.30;;;;;;111842;1260;46015;-70
2023/03/24 02:10:21;;;;;;;;;27.50;26.50;23.30;40.30;;;;;;111855;1259;57051;-70
2023/03/24 02:12:47;;;;;;;;;28.00;27.00;23.30;40.30;;;;;;111739;1260;53401;-70
2023/03/24 02:15:15;;;;;;;;;26.00;22.00;23.30;40.30;;;;;;111940;1259;49455;-70
2023/03/24 02:17:57;;;;;;;;;26.50;24.00;23.30;40.30;;;;;;111923;1259;50485;-70
2023/03/24 02:20:35;;;;;;;;;27.33;24.67;23.30;40.30;;;;;;111916;1259;46569;-70
2023/03/24 02:23:30;;;;;;;;;30.00;25.50;23.20;40.20;;;;;;111843;1259;56537;-70
2023/03/24 02:26:11;;;;;;;;;25.00;24.00;23.20;40.30;;;;;;111884;1259;53868;-70
2023/03/24 02:28:49;;;;;;;;;28.75;26.00;23.20;40.20;;;;;;111889;1259;49563;-70
2023/03/24 02:31:37;;;;;;;;;27.00;24.00;23.20;40.30;;;;;;111857;1260;49066;-70
2023/03/24 02:34:06;;;;;;;;;;;23.20;40.30;;;;;;111906;1259;46566;-70
2023/03/24 02:37:01;;;;;;;;;24.50;22.50;23.20;40.30;;;;;;111878;1256;56572;-70
2023/03/24 02:39:36;;;;;;;;;27.33;25.00;23.20;40.30;;;;;;111873;1259;54001;-70
2023/03/24 02:42:12;;;;;;;;;25.67;24.67;23.20;40.30;;;;;;111875;1255;49764;-70
2023/03/24 02:44:44;;;;;;;;;25.50;22.50;23.10;40.20;;;;;;111831;1260;49994;-70
2023/03/24 02:47:16;;;;;;;;;27.00;25.00;23.10;40.20;;;;;;111899;1259;46067;-70
2023/03/24 02:50:03;;;;;;;;;24.00;24.00;23.10;40.30;;;;;;111856;1260;56983;-70
2023/03/24 02:52:59;;;;;;;;;23.00;21.00;23.10;40.30;;;;;;111845;1259;53740;-70
2023/03/24 02:55:35;;;;;;;;;24.50;22.00;23.10;40.30;;;;;;111931;1259;49381;-70
2023/03/24 02:58:07;;;;;;;;;23.00;22.50;23.10;40.30;;;;;;111826;1261;49053;-70
2023/03/24 03:00:46;;;;;;;;;23.50;22.50;23.10;40.30;;;;;;111850;1260;46160;-70
2023/03/24 03:03:26;;;;;;;;;29.33;26.67;23.10;40.20;;;;;;111815;1257;56878;-70
2023/03/24 03:05:57;;;;;;;;;28.00;25.00;23.10;40.20;;;;;;111821;1261;53350;-70
2023/03/24 03:08:27;;;;;;;;;24.50;23.50;23.10;40.20;;;;;;111849;1260;49419;-70
2023/03/24 03:10:55;;;;;;;;;25.00;22.33;23.10;40.20;;;;;;111789;1261;49902;-71
2023/03/24 03:13:26;;;;;;;;;23.00;22.00;23.10;40.20;;;;;;111818;1259;46073;-70
2023/03/24 03:15:55;;;;;;;;;25.00;22.50;23.10;40.20;;;;;;111830;1260;57479;-70
2023/03/24 03:18:38;;;;;;;;;28.00;24.50;23.10;40.20;;;;;;111885;1259;54505;-70
2023/03/24 03:21:12;;;;;;;;;22.00;21.00;23.10;40.20;;;;;;111859;1255;49791;-70
2023/03/24 03:23:43;;;;;;;;;22.00;21.00;23.10;40.20;;;;;;111919;1259;49100;-70
2023/03/24 03:26:15;;;;;;;;;23.00;22.00;23.00;40.10;;;;;;111923;1255;46859;-70
2023/03/24 03:28:48;;;;;;;;;25.00;23.00;23.00;40.20;;;;;;111819;1260;56362;-70
2023/03/24 03:31:28;;;;;;;;;24.00;20.00;23.00;40.20;;;;;;111857;1255;54950;-70
2023/03/24 03:34:04;;;;;;;;;22.00;21.00;23.00;40.20;;;;;;111837;1260;49713;-70
2023/03/24 03:36:39;;;;;;;;;23.00;21.00;23.00;40.10;;;;;;111892;1255;49197;-70
2023/03/24 03:39:10;;;;;;;;;25.00;23.00;23.00;40.20;;;;;;111830;1260;46923;-70
2023/03/24 03:41:37;;;;;;;;;21.00;19.50;23.00;40.10;;;;;;111766;1260;57456;-70
2023/03/24 03:44:04;;;;;;;;;23.00;21.00;23.00;40.20;;;;;;111928;1260;53811;-70
2023/03/24 03:46:30;;;;;;;;;23.00;21.00;23.00;40.20;;;;;;111914;1260;50004;-70
2023/03/24 03:48:56;;;;;;;;;24.00;22.00;23.00;40.20;;;;;;111898;1259;49826;-70
2023/03/24 03:51:23;;;;;;;;;23.00;22.00;23.00;40.20;;;;;;111826;1260;46715;-70
2023/03/24 03:53:57;;;;;;;;;26.50;22.00;23.00;40.20;;;;;;111893;1256;56381;-70
2023/03/24 03:56:26;;;;;;;;;21.00;20.00;22.90;40.10;;;;;;111837;1260;54332;-70
2023/03/24 03:58:52;;;;;;;;;24.50;23.50;22.90;40.10;;;;;;111838;1257;49629;-70
2023/03/24 04:01:23;;;;;;;;;22.00;21.00;22.90;40.10;;;;;;111820;1257;50094;-70
2023/03/24 04:04:08;;;;;;;;;23.00;21.00;22.90;40.10;;;;;;111854;1257;46582;-70
2023/03/24 04:07:16;;;;;;;;;22.00;21.00;22.90;40.10;;;;;;111932;1259;56764;-70
2023/03/24 04:10:04;;;;;;;;;22.00;21.00;22.90;40.10;;;;;;111898;1259;54409;-70
2023/03/24 04:12:59;;;;;;;;;23.33;21.67;22.90;40.10;;;;;;111881;1259;49917;-70
2023/03/24 04:15:34;;;;;;;;;22.50;21.50;22.90;40.10;;;;;;111919;1259;49950;-70
2023/03/24 04:18:06;;;;;;;;;21.50;20.50;22.90;40.10;;;;;;111837;1259;46177;-70
2023/03/24 04:20:45;;;;;;;;;20.50;19.50;22.90;40.60;;;;;;111913;1259;57050;-70
2023/03/24 04:23:56;;;;;;;;;24.00;21.67;22.90;40.10;;;;;;111847;1260;53261;-70
2023/03/24 04:26:40;;;;;;;;;22.00;20.00;22.90;40.10;;;;;;111947;1259;49046;-70
2023/03/24 04:29:16;;;;;;;;;26.00;21.00;22.80;40.00;;;;;;111837;1260;49433;-69
2023/03/24 04:31:52;;;;;;;;;22.50;22.00;22.80;39.90;;;;;;111792;1259;46691;-70
2023/03/24 04:34:28;;;;;;;;;29.00;25.50;22.80;40.00;;;;;;111916;1259;56766;-70
2023/03/24 04:37:17;;;;;;;;;20.00;19.00;22.80;40.50;;;;;;111828;1257;54643;-70
2023/03/24 04:39:45;;;;;;;;;21.00;20.00;22.80;39.90;;;;;;111843;1258;50248;-70
2023/03/24 04:42:20;;;;;;;;;24.00;23.00;22.80;39.90;;;;;;111749;1261;49011;-70
2023/03/24 04:44:50;;;;;;;;;21.00;20.00;22.80;39.90;;;;;;111850;1259;46182;-70
2023/03/24 04:47:19;;;;;;;;;23.00;21.00;22.80;39.90;;;;;;111867;1257;56910;-70
2023/03/24 04:49:45;;;;;;;;;24.00;21.50;22.80;40.00;;;;;;111840;1260;53803;-70
2023/03/24 04:52:11;;;;;;;;;24.00;22.00;22.80;40.00;;;;;;111842;1259;49541;-70
2023/03/24 04:54:38;;;;;;;;;19.50;18.50;22.80;39.90;;;;;;111887;1258;49502;-70
2023/03/24 04:57:04;;;;;;;;;19.00;18.00;22.80;39.90;;;;;;111912;1258;46269;-70
2023/03/24 04:59:33;;;;;;;;;19.00;17.50;22.80;39.90;;;;;;111911;1259;56296;-70
2023/03/24 05:02:00;;;;;;;;;21.50;20.00;22.80;40.00;;;;;;111824;1257;54280;-70
2023/03/24 05:04:28;;;;;;;;;23.67;22.33;22.80;40.00;;;;;;111918;1259;48992;-70
2023/03/24 05:06:54;;;;;;;;;21.33;19.33;22.80;39.90;;;;;;111889;1259;49360;-70
2023/03/24 05:09:22;;;;;;;;;22.00;20.00;22.80;39.90;;;;;;111902;1259;46935;-70
2023/03/24 05:11:49;;;;;;;;;25.00;24.00;22.70;39.80;;;;;;111821;1260;57068;-70
2023/03/24 05:14:15;;;;;;;;;24.00;22.50;22.80;39.90;;;;;;111928;1259;54097;-70
2023/03/24 05:16:42;;;;;;;;;25.50;22.50;22.70;39.80;;;;;;111921;1259;49728;-70
2023/03/24 05:19:08;;;;;;;;;19.00;18.00;22.70;39.90;;;;;;111951;1258;50351;-70
2023/03/24 05:21:34;;;;;;;;;22.00;20.00;22.70;39.80;;;;;;111863;1260;46375;-70
2023/03/24 05:24:00;;;;;;;;;25.00;20.00;22.70;39.80;;;;;;111910;1259;57803;-70
2023/03/24 05:26:27;;;;;;;;;25.50;22.50;22.70;39.80;;;;;;111894;1259;53925;-70
2023/03/24 05:28:53;;;;;;;;;22.00;19.50;22.70;39.80;;;;;;111892;1258;50565;-69
2023/03/24 05:31:19;;;;;;;;;25.00;21.50;22.70;39.80;;;;;;111847;1255;49414;-70
2023/03/24 05:33:45;;;;;;;;;21.00;20.00;22.70;39.80;;;;;;111927;1258;46612;-70
2023/03/24 05:36:12;;;;;;;;;23.50;22.50;22.70;39.80;;;;;;111902;1259;56977;-70
2023/03/24 05:38:38;;;;;;;;;17.50;16.00;22.70;39.70;;;;;;111883;1260;54627;-70
2023/03/24 05:41:05;;;;;;;;;22.00;21.00;22.70;39.80;;;;;;111827;1255;50472;-70
2023/03/24 05:43:31;;;;;;;;;23.00;21.00;22.70;39.80;;;;;;111954;1259;49155;-69
2023/03/24 05:45:59;;;;;;;;;;;22.70;39.70;;;;;;111964;1259;46051;-70
2023/03/24 05:48:26;;;;;;;;;25.00;21.00;22.70;39.80;;;;;;111914;1259;57264;-70
2023/03/24 05:50:53;;;;;;;;;21.00;19.00;22.70;39.80;;;;;;111870;1259;54461;-70
2023/03/24 05:53:19;;;;;;;;;20.50;19.50;22.70;39.80;;;;;;111876;1258;49460;-70
2023/03/24 05:55:45;;;;;;;;;19.50;18.50;22.70;39.80;;;;;;111917;1259;49030;-69
2023/03/24 05:58:12;;;;;;;;;24.00;20.00;22.70;39.80;;;;;;111899;1259;46285;-70
2023/03/24 06:00:39;;;;;;;;;20.50;19.50;22.70;39.80;;;;;;111824;1256;56139;-69
2023/03/24 06:03:05;;;;;;;;;24.00;20.00;22.70;39.70;;;;;;111831;1260;54052;-72
2023/03/24 06:05:32;;;;;;;;;21.00;19.67;22.70;39.60;;;;;;111937;1259;50125;-70
2023/03/24 06:08:00;;;;;;;;;20.00;18.00;22.80;39.70;;;;;;111965;1258;49673;-70
2023/03/24 06:10:27;;;;;;;;;21.50;18.00;22.80;39.60;;;;;;111941;1259;46672;-69
2023/03/24 06:12:54;;;;;;;;;23.00;20.00;22.80;39.60;;;;;;111784;1260;56227;-69
2023/03/24 06:15:26;;;;;;;;;26.00;20.00;22.80;39.60;;;;;;111923;1259;54032;-70
2023/03/24 06:17:53;;;;;;;;;21.00;19.00;22.80;39.60;;;;;;111890;1259;49037;-70
2023/03/24 06:20:20;;;;;;;;;25.00;21.00;22.80;39.60;;;;;;111910;1259;49928;-70
2023/03/24 06:22:46;;;;;;;;;19.67;17.67;22.90;39.60;;;;;;111856;1257;46932;-69
2023/03/24 06:25:15;;;;;;;;;22.50;17.50;22.80;39.50;;;;;;111856;1259;57261;-69
2023/03/24 06:27:44;;;;;;;;;20.67;19.00;22.90;39.50;;;;;;111881;1259;54313;-69
2023/03/24 06:30:14;;;;;;;;;22.00;20.00;22.90;39.50;;;;;;111903;1259;50515;-69
2023/03/24 06:32:41;;;;;;;;;22.00;19.00;22.90;39.50;;;;;;111825;1257;48963;-65
2023/03/24 06:35:07;;;;;;;;;21.00;19.00;22.90;40.70;;;;;;111916;1260;46640;-67
2023/03/24 06:37:33;;;;;;;;;19.67;17.00;23.00;40.00;;;;;;111919;1259;57375;-66
2023/03/24 06:40:00;;;;;;;;;22.00;19.00;23.00;40.20;;;;;;111926;1255;53826;-63
2023/03/24 06:42:26;;;;;;;;;22.00;21.00;22.90;39.80;;;;;;111876;1256;49855;-66
2023/03/24 06:44:52;;;;;;;;;22.00;20.00;23.00;39.80;;;;;;111907;1259;49145;-66
2023/03/24 06:47:19;;;;;;;;;20.67;20.00;23.00;39.70;;;;;;111887;1260;46036;-65
2023/03/24 06:49:45;;;;;;;;;19.00;18.00;23.00;39.70;;;;;;111900;1259;57711;-66
2023/03/24 06:52:11;;;;;;;;;21.50;20.00;23.10;39.60;;;;;;111823;1258;53595;-66
2023/03/24 06:54:37;;;;;;;;;21.00;18.00;23.10;39.50;;;;;;111911;1259;49980;-65
2023/03/24 06:57:04;;;;;;;;;23.00;21.00;23.10;39.50;;;;;;111887;1260;49361;-65
2023/03/24 06:59:30;;;;;;;;;18.50;17.50;23.10;39.40;;;;;;111900;1259;46011;-64
2023/03/24 07:01:56;;;;;;;;;19.50;18.50;23.10;39.20;;;;;;111823;1257;56263;-64
2023/03/24 07:04:24;;;;;;;;;18.00;17.00;23.20;39.20;;;;;;111912;1257;54841;-65
2023/03/24 07:06:51;;;;;;;;;22.50;20.00;23.40;39.10;;;;;;111005;1259;1166375;-67
2023/03/24 07:09:18;;;;;;;;;19.00;18.00;23.40;38.90;;;;;;111910;1260;49442;-64
2023/03/24 07:11:45;;;;;;;;;19.00;18.00;23.60;38.90;;;;;;111861;1260;47016;-65
2023/03/24 07:14:11;;;;;;;;;18.00;17.00;23.70;38.90;;;;;;111894;1260;56493;-64
2023/03/24 07:16:37;;;;;;;;;19.00;16.00;23.80;38.80;;;;;;111895;1260;53907;-65
2023/03/24 07:19:04;;;;;;;;;21.00;19.00;23.90;38.70;;;;;;111890;1259;49314;-64
2023/03/24 07:21:30;;;;;;;;;19.00;18.00;24.10;38.70;;;;;;111809;1257;49734;-64
2023/03/24 07:23:56;;;;;;;;;21.00;18.00;24.10;38.60;;;;;;111921;1260;46579;-65
2023/03/24 07:26:22;;;;;;;;;20.00;19.00;24.20;38.50;;;;;;111898;1259;56557;-65
2023/03/24 07:28:49;;;;;;;;;18.00;18.00;24.30;38.50;;;;;;111889;1259;55008;-66
2023/03/24 07:31:15;;;;;;;;;18.67;17.67;24.30;38.40;;;;;;111831;1260;49436;-66
2023/03/24 07:33:42;;;;;;;;;18.67;17.67;24.40;38.30;;;;;;111904;1260;48913;-66
2023/03/24 07:36:08;;;;;;;;;18.50;17.50;24.50;38.30;;;;;;111910;1259;47614;-66
2023/03/24 07:38:34;;;;;;;;;20.00;17.00;24.60;38.20;;;;;;111927;1255;56114;-66
2023/03/24 07:41:01;;;;;;;;;18.00;17.00;24.60;38.10;;;;;;111892;1259;54597;-66
2023/03/24 07:43:27;;;;;;;;;21.00;16.00;24.60;38.00;;;;;;111878;1260;49118;-65
2023/03/24 07:45:54;;;;;;;;;22.00;19.50;24.70;38.00;;;;;;111897;1260;49663;-66
2023/03/24 07:48:20;;;;;;;;;17.00;15.00;24.80;38.00;;;;;;111835;1260;46908;-65
2023/03/24 07:50:46;;;;;;;;;19.00;16.00;24.90;38.00;;;;;;111921;1259;56343;-66
2023/03/24 07:53:17;;;;;;;;;20.00;19.00;24.90;37.90;;;;;;111818;1255;54155;-66
2023/03/24 07:55:43;;;;;;;;;18.00;16.50;24.90;37.80;;;;;;111924;1255;49982;-63
2023/03/24 07:58:10;;;;;;;;;20.50;17.50;24.90;37.70;;;;;;111903;1259;49375;-66
2023/03/24 08:00:37;;;;;;;;;19.00;15.50;25.00;37.70;;;;;;111892;1259;46808;-65
2023/03/24 08:03:03;;;;;;;;;18.50;17.50;25.10;37.70;;;;;;111832;1259;56049;-65
2023/03/24 08:05:29;;;;;;;;;22.00;19.50;25.10;37.70;;;;;;111925;1255;54152;-67
2023/03/24 08:07:57;;;;;;;;;22.00;21.00;25.10;37.70;;;;;;111906;1259;48974;-65
2023/03/24 08:10:25;;;;;;;;;20.50;17.50;25.10;37.80;;;;;;111930;1259;49933;-68
2023/03/24 08:12:52;;;;;;;;;19.67;16.67;25.20;37.60;;;;;;111849;1259;46838;-67
2023/03/24 08:15:19;;;;;;;;;20.00;16.00;25.20;37.40;;;;;;111891;1260;57680;-64
2023/03/24 08:17:47;;;;;;;;;19.00;17.00;25.30;37.60;;;;;;111905;1259;53563;-65
2023/03/24 08:20:13;;;;;;;;;22.00;18.00;25.30;37.50;;;;;;111924;1256;49573;-64
2023/03/24 08:22:42;;;;;;;;;21.00;19.50;25.30;37.40;;;;;;111836;1256;51116;-66
2023/03/24 08:25:11;;;;;;;;;17.00;16.00;25.40;37.30;;;;;;111911;1259;46641;-64
2023/03/24 08:27:39;;;;;;;;;17.00;16.00;25.40;37.30;;;;;;111890;1260;56718;-64
2023/03/24 08:30:07;;;;;;;;;20.00;19.00;25.50;37.30;;;;;;111918;1260;54074;-66
2023/03/24 08:32:33;;;;;;;;;19.00;18.00;25.50;37.20;;;;;;111852;1255;50680;-65
2023/03/24 08:35:00;;;;;;;;;16.00;14.00;25.50;37.30;;;;;;111964;1259;49592;-65
2023/03/24 08:37:26;;;;;;;;;19.50;18.00;25.60;37.50;;;;;;111952;1259;46791;-67
2023/03/24 08:39:57;;;;;;;;;16.50;15.00;25.60;37.20;;;;;;111991;1255;56912;-66
2023/03/24 08:42:24;;;;;;;;;21.50;19.00;25.60;37.00;;;;;;111909;1259;53854;-66
2023/03/24 08:44:51;;;;;;;;;17.00;16.00;25.60;37.30;;;;;;111926;1260;49590;-68
2023/03/24 08:47:17;;;;;;;;;20.00;19.00;25.60;37.30;;;;;;111904;1260;49210;-68
2023/03/24 08:49:43;;;;;;;;;22.00;19.50;25.60;36.90;;;;;;111954;1259;46750;-68
2023/03/24 08:52:10;;;;;;;;;15.00;14.00;25.60;36.70;;;;;;111893;1259;57008;-66
2023/03/24 08:54:36;;;;;;;;;21.00;20.00;25.60;36.70;;;;;;111898;1259;55079;-67
2023/03/24 08:57:02;;;;;;;;;21.00;18.00;25.60;36.70;;;;;;111925;1260;49847;-67
2023/03/24 08:59:29;;;;;;;;;18.00;17.00;25.60;36.70;;;;;;111843;1261;49051;-66
2023/03/24 09:01:55;;;;;;;;;18.50;17.00;25.70;37.00;;;;;;111915;1255;46572;-65
2023/03/24 09:04:21;;;;;;;;;19.00;17.00;25.80;37.30;;;;;;111937;1255;56847;-66
2023/03/24 09:06:48;;;;;;;;;17.50;16.50;25.90;37.40;;;;;;111914;1260;53702;-66
2023/03/24 09:09:15;;;;;;;;;20.00;19.00;26.00;37.20;;;;;;111913;1260;49997;-65
2023/03/24 09:11:41;;;;;;;;;18.00;17.00;26.00;37.10;;;;;;111844;1257;49410;-67
2023/03/24 09:14:07;;;;;;;;;19.00;17.00;26.00;36.70;;;;;;111929;1259;46448;-68
2023/03/24 09:16:33;;;;;;;;;20.50;18.50;26.00;36.80;;;;;;111905;1255;57423;-69
2023/03/24 09:19:00;;;;;;;;;22.00;17.00;26.10;37.20;;;;;;111858;1260;53507;-69
2023/03/24 09:21:26;;;;;;;;;19.00;18.00;26.10;37.00;;;;;;111821;1259;49177;-68
2023/03/24 09:23:52;;;;;;;;;18.00;17.00;26.20;36.80;;;;;;111865;1260;49479;-68
2023/03/24 09:26:19;;;;;;;;;17.00;16.00;26.30;36.70;;;;;;111929;1259;46712;-68
2023/03/24 09:28:45;;;;;;;;;19.00;17.50;26.40;37.20;;;;;;111934;1259;57015;-65
2023/03/24 09:31:11;;;;;;;;;;;26.50;37.20;;;;;;111831;1255;54380;-66
2023/03/24 09:33:37;;;;;;;;;27.00;21.00;26.50;37.60;;;;;;111909;1255;49749;-64
2023/03/24 09:36:04;;;;;;;;;35.00;29.50;26.60;37.90;;;;;;111907;1260;49545;-65
2023/03/24 09:38:32;;;;;;;;;35.50;22.50;26.60;38.20;;;;;;111916;1258;46452;-66
2023/03/24 09:41:01;;;;;;;;;37.00;28.00;26.70;38.40;;;;;;111911;1259;56493;-65
2023/03/24 09:43:33;;;;;;;;;38.00;25.00;26.70;38.40;;;;;;111924;1255;55086;-65
2023/03/24 09:46:01;;;;;;;;;35.33;31.00;26.80;38.40;;;;;;111913;1259;50382;-65
2023/03/24 09:48:33;;;;;;;;;33.67;29.67;26.80;38.50;;;;;;111832;1260;49367;-65
2023/03/24 09:51:08;;;;;;;;;33.00;25.00;26.80;38.40;;;;;;111881;1259;47395;-65
2023/03/24 09:53:56;;;;;;;;;30.50;24.75;26.80;38.40;;;;;;111813;1260;56940;-65
2023/03/24 09:56:24;;;;;;;;;34.00;29.00;26.80;38.30;;;;;;111923;1258;53762;-65
2023/03/24 09:59:05;;;;;;;;;27.00;23.00;26.90;38.40;;;;;;111850;1259;49317;-65
2023/03/24 10:01:34;;;;;;;;;34.00;24.00;26.90;38.40;;;;;;111788;1261;49066;-65
2023/03/24 10:04:01;;;;;;;;;29.00;25.00;26.90;38.20;;;;;;111918;1259;46140;-65
2023/03/24 10:06:38;;;;;;;;;32.00;26.00;26.90;38.20;;;;;;111834;1260;56364;-65
2023/03/24 10:09:19;;;;;;;;;30.00;24.00;26.90;38.20;;;;;;111843;1259;54324;-65
2023/03/24 10:11:55;;;;;;;;;31.00;29.00;26.90;38.10;;;;;;111835;1259;49765;-65
2023/03/24 10:14:42;;;;;;;;;37.00;28.50;26.90;38.10;;;;;;111896;1258;49445;-65
2023/03/24 10:17:16;;;;;;;;;26.50;23.00;27.00;38.20;;;;;;111910;1259;46949;-65
2023/03/24 10:19:47;;;;;;;;;28.00;19.00;27.00;38.10;;;;;;111917;1259;56988;-66
2023/03/24 10:22:31;;;;;;;;;27.00;21.00;27.00;38.10;;;;;;111772;1260;54106;-65
2023/03/24 10:25:06;;;;;;;;;24.50;20.50;27.00;38.20;;;;;;111920;1258;50464;-65
2023/03/24 10:27:43;;;;;;;;;25.50;22.00;27.00;38.00;;;;;;111843;1261;50232;-65
2023/03/24 10:30:20;;;;;;;;;29.50;25.00;27.00;38.10;;;;;;111897;1259;46169;-65
2023/03/24 10:32:46;;;;;;;;;32.00;24.00;27.10;38.10;;;;;;111780;1258;57405;-66
2023/03/24 10:35:50;;;;;;;;;36.00;28.00;27.10;38.50;;;;;;111945;1259;54152;-65
2023/03/24 10:38:19;;;;;;;;;28.00;25.00;27.10;38.50;;;;;;111707;1260;49131;-66
2023/03/24 10:40:47;;;;;;;;;32.00;23.00;27.00;38.20;;;;;;111899;1260;48998;-66
2023/03/24 10:43:16;;;;;;;;;33.00;26.00;27.00;38.20;;;;;;111900;1260;46888;-65
2023/03/24 10:45:47;;;;;;;;;25.00;23.00;27.00;38.40;;;;;;111837;1260;56747;-66
2023/03/24 10:48:31;;;;;;;;;27.50;23.25;27.00;38.40;;;;;;111844;1260;55149;-69
2023/03/24 10:50:58;;;;;;;;;27.00;21.00;27.00;38.20;;;;;;111816;1260;50582;-65
2023/03/24 10:53:24;;;;;;;;;24.00;22.00;27.00;38.40;;;;;;111893;1255;50213;-66
2023/03/24 10:55:51;;;;;;;;;27.00;23.00;27.00;38.60;;;;;;111943;1256;46275;-66
2023/03/24 10:58:47;;;;;;;;;28.50;25.00;27.00;38.60;;;;;;111928;1259;57568;-66
2023/03/24 11:01:31;;;;;;;;;;;27.10;38.70;;;;;;111888;1260;57294;-66
2023/03/24 11:04:03;;;;;;;;;29.00;25.00;27.10;38.40;;;;;;111935;1259;49834;-67
2023/03/24 11:06:30;;;;;;;;;31.00;22.00;27.10;38.20;;;;;;111803;1262;50158;-67
2023/03/24 11:09:09;;;;;;;;;25.50;20.00;27.10;38.30;;;;;;111819;1260;46865;-66
2023/03/24 11:11:35;;;;;;;;;31.00;22.00;27.20;38.40;;;;;;111810;1257;56738;-64
2023/03/24 11:14:02;;;;;;;;;24.50;23.00;27.20;38.40;;;;;;111892;1255;54927;-65
2023/03/24 11:16:37;;;;;;;;;25.00;21.00;27.20;38.40;;;;;;111912;1257;49179;-64
2023/03/24 11:19:06;;;;;;;;;26.00;22.00;27.20;38.20;;;;;;111902;1259;50665;-65
2023/03/24 11:21:35;;;;;;;;;23.00;21.00;27.30;38.40;;;;;;111845;1259;46839;-64
2023/03/24 11:24:08;;;;;;;;;30.00;22.00;27.30;38.50;;;;;;111846;1260;56803;-68
2023/03/24 11:26:36;;;;;;;;;31.00;23.50;27.30;38.30;;;;;;111845;1259;54160;-66
2023/03/24 11:29:08;;;;;;;;;28.00;25.00;27.30;38.40;;;;;;111838;1260;49757;-65
2023/03/24 11:31:38;;;;;;;;;26.00;22.00;27.30;38.20;;;;;;111740;1261;50063;-66
2023/03/24 11:34:41;;;;;;;;;23.00;20.00;27.40;38.50;;;;;;111841;1261;46566;-68
2023/03/24 11:37:11;;;;;;;;;31.00;23.00;27.40;38.40;;;;;;111877;1259;56387;-68
2023/03/24 11:39:37;;;;;;;;;25.00;21.00;27.40;38.30;;;;;;111842;1257;54681;-66
2023/03/24 11:42:09;;;;;;;;;26.00;23.00;27.40;38.20;;;;;;111805;1260;49835;-66
2023/03/24 11:44:42;;;;;;;;;25.00;22.00;27.40;38.20;;;;;;111902;1260;49139;-69
2023/03/24 11:47:34;;;;;;;;;23.00;20.50;27.50;38.20;;;;;;111899;1255;46945;-66
2023/03/24 11:50:10;;;;;;;;;22.50;20.00;27.50;38.20;;;;;;111880;1259;56874;-68
2023/03/24 11:52:54;;;;;;;;;21.00;19.00;27.50;37.90;;;;;;111839;1259;53978;-65
2023/03/24 11:55:52;;;;;;;;;29.00;25.00;27.50;37.80;;;;;;111836;1260;49802;-69
2023/03/24 11:58:51;;;;;;;;;24.50;21.50;27.60;38.00;;;;;;111846;1259;50090;-71
2023/03/24 12:01:20;;;;;;;;;25.50;21.00;27.60;37.90;;;;;;111846;1259;45938;-69
2023/03/24 12:04:08;;;;;;;;;23.33;20.33;27.60;37.90;;;;;;111902;1259;56936;-70
2023/03/24 12:06:39;;;;;;;;;25.00;22.00;27.60;37.70;;;;;;111925;1259;53668;-68
2023/03/24 12:09:32;;;;;;;;;23.50;22.00;27.60;37.80;;;;;;111874;1260;49191;-67
2023/03/24 12:12:19;;;;;;;;;21.00;18.00;27.70;37.90;;;;;;111839;1259;49137;-68
2023/03/24 12:14:54;;;;;;;;;26.00;21.50;27.70;37.90;;;;;;111840;1257;46051;-68
2023/03/24 12:17:27;;;;;;;;;25.00;22.00;27.70;37.70;;;;;;111921;1255;57641;-69
2023/03/24 12:20:07;;;;;;;;;26.00;22.00;27.70;37.80;;;;;;111819;1260;53781;-66
2023/03/24 12:22:36;;;;;;;;;20.50;19.00;27.70;37.80;;;;;;111898;1260;49551;-69
2023/03/24 12:25:23;;;;;;;;;21.00;19.00;27.70;37.80;;;;;;111956;1259;49317;-67
2023/03/24 12:28:08;;;;;;;;;21.00;20.00;27.70;37.70;;;;;;111944;1260;46489;-68
2023/03/24 12:31:07;;;;;;;;;26.00;21.00;27.70;37.70;;;;;;111969;1259;57116;-66
2023/03/24 12:34:02;;;;;;;;;26.00;20.00;27.70;37.90;;;;;;111716;1259;53658;-65
2023/03/24 12:36:55;;;;;;;;;28.50;22.00;27.70;38.00;;;;;;111838;1260;49967;-66
2023/03/24 12:40:01;;;;;;;;;20.00;18.00;27.70;38.00;;;;;;111769;1259;49639;-68